AFR84TL LFBD-LFML
Flight info
| Callsign | AFR84TL |
|---|---|
| Flight time | 0h 53m |
| Altitude | 33000 |
| Route | OBLOC DCT SECHE DCT SOVET DCT FJR |
| Aircraft | E190/M-SDE3GILORVW/S |
Departure
| Time | 2026-05-06 19:56 |
|---|---|
| Airport | Bordeaux–Mérignac Airport (LFBD) |
Arrival
| Time | 2026-05-06 20:49 |
|---|---|
| Airport | Marseille Provence Airport (LFML) |
| Time | Latitude | Longitude | Altitude | Speed | Heading |
|---|---|---|---|---|---|
| 2026-05-06 19:27 | 44.82925 | -0.70553 | 162 ft | 0 kts | 313° |
| 2026-05-06 19:50 | 44.82925 | -0.70555 | 161 ft | 0 kts | 298° |
| 2026-05-06 19:51 | 44.82923 | -0.70559 | 160 ft | 0 kts | 268° |
| 2026-05-06 19:51 | 44.82916 | -0.70569 | 160 ft | 3 kts | 227° |
| 2026-05-06 19:51 | 44.82910 | -0.70566 | 160 ft | 1 kts | 164° |
| 2026-05-06 19:51 | 44.82886 | -0.70555 | 160 ft | 5 kts | 168° |
| 2026-05-06 19:52 | 44.82858 | -0.70532 | 160 ft | 3 kts | 123° |
| 2026-05-06 19:52 | 44.82846 | -0.70476 | 160 ft | 8 kts | 106° |
| 2026-05-06 19:52 | 44.82826 | -0.70385 | 160 ft | 12 kts | 107° |
| 2026-05-06 19:52 | 44.82795 | -0.70242 | 160 ft | 17 kts | 107° |
| 2026-05-06 19:53 | 44.82756 | -0.70067 | 160 ft | 20 kts | 108° |
| 2026-05-06 19:53 | 44.82724 | -0.69950 | 160 ft | 4 kts | 134° |
| 2026-05-06 19:53 | 44.82673 | -0.69944 | 160 ft | 11 kts | 194° |
| 2026-05-06 19:53 | 44.82593 | -0.69973 | 162 ft | 12 kts | 196° |
| 2026-05-06 19:54 | 44.82553 | -0.70058 | 162 ft | 8 kts | 278° |
| 2026-05-06 19:54 | 44.82554 | -0.70067 | 162 ft | 0 kts | 284° |
| 2026-05-06 19:55 | 44.82557 | -0.70083 | 162 ft | 10 kts | 284° |
| 2026-05-06 19:56 | 44.82661 | -0.70585 | 158 ft | 96 kts | 288° |
| 2026-05-06 19:56 | 44.82925 | -0.71812 | 306 ft | 156 kts | 288° |
| 2026-05-06 19:56 | 44.83287 | -0.73410 | 1065 ft | 183 kts | 289° |
| 2026-05-06 19:56 | 44.83668 | -0.75125 | 2145 ft | 180 kts | 289° |
| 2026-05-06 19:57 | 44.84011 | -0.76809 | 3103 ft | 181 kts | 289° |
| 2026-05-06 19:57 | 44.84365 | -0.78562 | 3858 ft | 191 kts | 288° |
| 2026-05-06 19:57 | 44.84703 | -0.80393 | 4661 ft | 197 kts | 283° |
| 2026-05-06 19:57 | 44.84517 | -0.82380 | 5156 ft | 223 kts | 246° |
| 2026-05-06 19:58 | 44.83356 | -0.83955 | 5701 ft | 244 kts | 210° |
| 2026-05-06 19:58 | 44.81697 | -0.84378 | 6550 ft | 246 kts | 176° |
| 2026-05-06 19:58 | 44.80081 | -0.83585 | 7193 ft | 253 kts | 148° |
| 2026-05-06 19:58 | 44.78747 | -0.81851 | 7643 ft | 272 kts | 129° |
| 2026-05-06 19:59 | 44.77477 | -0.79671 | 7990 ft | 294 kts | 134° |
| 2026-05-06 19:59 | 44.75834 | -0.77942 | 8924 ft | 296 kts | 150° |
| 2026-05-06 19:59 | 44.74037 | -0.76535 | 9893 ft | 297 kts | 152° |
| 2026-05-06 19:59 | 44.72215 | -0.75051 | 10501 ft | 312 kts | 149° |
| 2026-05-06 20:00 | 44.70371 | -0.73283 | 10952 ft | 331 kts | 139° |
| 2026-05-06 20:00 | 44.69015 | -0.70586 | 11418 ft | 348 kts | 110° |
| 2026-05-06 20:00 | 44.68695 | -0.67220 | 12191 ft | 353 kts | 83° |
| 2026-05-06 20:00 | 44.69212 | -0.63841 | 13077 ft | 356 kts | 77° |
| 2026-05-06 20:01 | 44.69359 | -0.60351 | 13910 ft | 362 kts | 92° |
| 2026-05-06 20:01 | 44.68773 | -0.56894 | 14089 ft | 370 kts | 114° |
| 2026-05-06 20:01 | 44.67579 | -0.53722 | 14099 ft | 367 kts | 117° |
| 2026-05-06 20:01 | 44.66502 | -0.50476 | 14102 ft | 365 kts | 112° |
| 2026-05-06 20:02 | 44.65564 | -0.47162 | 14028 ft | 366 kts | 110° |
| 2026-05-06 20:02 | 44.64725 | -0.43815 | 13985 ft | 362 kts | 108° |
| 2026-05-06 20:02 | 44.63951 | -0.40463 | 14737 ft | 362 kts | 107° |
| 2026-05-06 20:02 | 44.63185 | -0.37058 | 15598 ft | 369 kts | 107° |
| 2026-05-06 20:03 | 44.62419 | -0.33605 | 16478 ft | 374 kts | 106° |
| 2026-05-06 20:03 | 44.61642 | -0.30097 | 17333 ft | 379 kts | 106° |
| 2026-05-06 20:03 | 44.60854 | -0.26531 | 18184 ft | 386 kts | 106° |
| 2026-05-06 20:03 | 44.60054 | -0.22911 | 18970 ft | 390 kts | 106° |
| 2026-05-06 20:04 | 44.59246 | -0.19257 | 19743 ft | 395 kts | 105° |
| 2026-05-06 20:04 | 44.58424 | -0.15542 | 20051 ft | 401 kts | 105° |
| 2026-05-06 20:04 | 44.57596 | -0.11810 | 20017 ft | 399 kts | 106° |
| 2026-05-06 20:04 | 44.56770 | -0.08099 | 20007 ft | 398 kts | 106° |
| 2026-05-06 20:05 | 44.55947 | -0.04404 | 20094 ft | 397 kts | 106° |
| 2026-05-06 20:05 | 44.55125 | -0.00720 | 20759 ft | 397 kts | 105° |
| 2026-05-06 20:05 | 44.54299 | 0.02977 | 20735 ft | 393 kts | 105° |
| 2026-05-06 20:05 | 44.53502 | 0.06525 | 21006 ft | 379 kts | 105° |
| 2026-05-06 20:06 | 44.52705 | 0.10089 | 21535 ft | 388 kts | 105° |
| 2026-05-06 20:06 | 44.51888 | 0.13740 | 22020 ft | 398 kts | 105° |
| 2026-05-06 20:06 | 44.51047 | 0.17482 | 22483 ft | 407 kts | 105° |
| 2026-05-06 20:06 | 44.50189 | 0.21293 | 23050 ft | 413 kts | 105° |
| 2026-05-06 20:07 | 44.49315 | 0.25164 | 23610 ft | 420 kts | 105° |
| 2026-05-06 20:07 | 44.48426 | 0.29087 | 24148 ft | 426 kts | 105° |
| 2026-05-06 20:07 | 44.47537 | 0.33004 | 24717 ft | 429 kts | 105° |
| 2026-05-06 20:07 | 44.46616 | 0.37053 | 25314 ft | 433 kts | 105° |
| 2026-05-06 20:08 | 44.45698 | 0.41080 | 25923 ft | 436 kts | 105° |
| 2026-05-06 20:08 | 44.44773 | 0.45138 | 26442 ft | 439 kts | 105° |
| 2026-05-06 20:08 | 44.43852 | 0.49169 | 26911 ft | 443 kts | 105° |
| 2026-05-06 20:08 | 44.42909 | 0.53290 | 27383 ft | 446 kts | 105° |
| 2026-05-06 20:09 | 44.41958 | 0.57434 | 27827 ft | 449 kts | 105° |
| 2026-05-06 20:09 | 44.40996 | 0.61621 | 28203 ft | 454 kts | 106° |
| 2026-05-06 20:09 | 44.40024 | 0.65842 | 28613 ft | 457 kts | 106° |
| 2026-05-06 20:09 | 44.39046 | 0.70083 | 29057 ft | 459 kts | 106° |
| 2026-05-06 20:10 | 44.38064 | 0.74328 | 29686 ft | 457 kts | 106° |
| 2026-05-06 20:10 | 44.37087 | 0.78544 | 30292 ft | 455 kts | 106° |
| 2026-05-06 20:10 | 44.36112 | 0.82750 | 30705 ft | 455 kts | 106° |
| 2026-05-06 20:10 | 44.35134 | 0.86960 | 31104 ft | 456 kts | 107° |
| 2026-05-06 20:11 | 44.34152 | 0.91178 | 31525 ft | 456 kts | 107° |
| 2026-05-06 20:11 | 44.33172 | 0.95382 | 31924 ft | 456 kts | 107° |
| 2026-05-06 20:11 | 44.32187 | 0.99596 | 32307 ft | 456 kts | 107° |
| 2026-05-06 20:11 | 44.31203 | 1.03803 | 32694 ft | 456 kts | 107° |
| 2026-05-06 20:12 | 44.30219 | 1.08005 | 33014 ft | 454 kts | 108° |
| 2026-05-06 20:12 | 44.29248 | 1.12142 | 32997 ft | 443 kts | 108° |
| 2026-05-06 20:12 | 44.27325 | 1.20324 | 32984 ft | 444 kts | 108° |
| 2026-05-06 20:13 | 44.25391 | 1.28520 | 32974 ft | 445 kts | 108° |
| 2026-05-06 20:13 | 44.23452 | 1.36705 | 32980 ft | 445 kts | 108° |
| 2026-05-06 20:14 | 44.21507 | 1.44886 | 32982 ft | 445 kts | 109° |
| 2026-05-06 20:14 | 44.19545 | 1.53100 | 32957 ft | 446 kts | 109° |
| 2026-05-06 20:15 | 44.17586 | 1.61302 | 32974 ft | 446 kts | 109° |
| 2026-05-06 20:15 | 44.15621 | 1.69501 | 32987 ft | 446 kts | 109° |
| 2026-05-06 20:16 | 44.13660 | 1.77640 | 32991 ft | 446 kts | 109° |
| 2026-05-06 20:16 | 44.11678 | 1.85819 | 32994 ft | 446 kts | 109° |
| 2026-05-06 20:17 | 44.09688 | 1.94004 | 32984 ft | 448 kts | 110° |
| 2026-05-06 20:17 | 44.07685 | 2.02212 | 32981 ft | 448 kts | 110° |
| 2026-05-06 20:18 | 44.05684 | 2.10417 | 32981 ft | 448 kts | 110° |
| 2026-05-06 20:18 | 44.03677 | 2.18606 | 32998 ft | 448 kts | 110° |
| 2026-05-06 20:19 | 44.01662 | 2.26798 | 32999 ft | 448 kts | 110° |
| 2026-05-06 20:19 | 43.99642 | 2.35017 | 33019 ft | 452 kts | 111° |
| 2026-05-06 20:20 | 43.97593 | 2.43290 | 33000 ft | 453 kts | 111° |
| 2026-05-06 20:20 | 43.95887 | 2.50153 | 33008 ft | 453 kts | 111° |
| 2026-05-06 20:21 | 43.93826 | 2.58404 | 33002 ft | 453 kts | 111° |
| 2026-05-06 20:21 | 43.91759 | 2.66658 | 32998 ft | 453 kts | 111° |
| 2026-05-06 20:22 | 43.89693 | 2.74927 | 32994 ft | 454 kts | 112° |
| 2026-05-06 20:22 | 43.87600 | 2.83175 | 32990 ft | 453 kts | 112° |
| 2026-05-06 20:23 | 43.86577 | 2.87220 | 32946 ft | 436 kts | 112° |
| 2026-05-06 20:23 | 43.85592 | 2.91119 | 32671 ft | 423 kts | 112° |
| 2026-05-06 20:23 | 43.84624 | 2.94914 | 32280 ft | 414 kts | 112° |
| 2026-05-06 20:23 | 43.83673 | 2.98640 | 31805 ft | 408 kts | 112° |
| 2026-05-06 20:24 | 43.82733 | 3.02332 | 31231 ft | 405 kts | 111° |
| 2026-05-06 20:24 | 43.81794 | 3.06000 | 30597 ft | 405 kts | 112° |
| 2026-05-06 20:24 | 43.80850 | 3.09686 | 29814 ft | 407 kts | 112° |
| 2026-05-06 20:24 | 43.79901 | 3.13393 | 28865 ft | 411 kts | 112° |
| 2026-05-06 20:25 | 43.78940 | 3.17137 | 27921 ft | 415 kts | 112° |
| 2026-05-06 20:25 | 43.77972 | 3.20920 | 26942 ft | 419 kts | 112° |
| 2026-05-06 20:25 | 43.76993 | 3.24735 | 25948 ft | 423 kts | 112° |
| 2026-05-06 20:25 | 43.76009 | 3.28587 | 25007 ft | 425 kts | 111° |
| 2026-05-06 20:26 | 43.75026 | 3.32438 | 24176 ft | 424 kts | 111° |
| 2026-05-06 20:26 | 43.74044 | 3.36266 | 23491 ft | 419 kts | 111° |
| 2026-05-06 20:26 | 43.73068 | 3.40038 | 22723 ft | 414 kts | 111° |
| 2026-05-06 20:26 | 43.72101 | 3.43755 | 21973 ft | 409 kts | 111° |
| 2026-05-06 20:27 | 43.71141 | 3.47431 | 21219 ft | 404 kts | 111° |
| 2026-05-06 20:27 | 43.70185 | 3.51064 | 20500 ft | 400 kts | 111° |
| 2026-05-06 20:27 | 43.69248 | 3.54635 | 20214 ft | 385 kts | 111° |
| 2026-05-06 20:27 | 43.68334 | 3.58054 | 20677 ft | 380 kts | 112° |
| 2026-05-06 20:28 | 43.67449 | 3.61461 | 20604 ft | 371 kts | 111° |
| 2026-05-06 20:28 | 43.66594 | 3.64774 | 20336 ft | 361 kts | 111° |
| 2026-05-06 20:28 | 43.65754 | 3.68002 | 20010 ft | 354 kts | 111° |
| 2026-05-06 20:28 | 43.64704 | 3.71011 | 20010 ft | 352 kts | 131° |
| 2026-05-06 20:29 | 43.62822 | 3.73248 | 20061 ft | 366 kts | 153° |
| 2026-05-06 20:29 | 43.60572 | 3.75011 | 20134 ft | 378 kts | 153° |
| 2026-05-06 20:29 | 43.58384 | 3.77085 | 20200 ft | 386 kts | 144° |
| 2026-05-06 20:29 | 43.56414 | 3.79661 | 19947 ft | 394 kts | 135° |
| 2026-05-06 20:30 | 43.54748 | 3.82623 | 19987 ft | 392 kts | 126° |
| 2026-05-06 20:30 | 43.52409 | 3.89162 | 19597 ft | 369 kts | 114° |
| 2026-05-06 20:30 | 43.51479 | 3.92413 | 19229 ft | 360 kts | 113° |
| 2026-05-06 20:31 | 43.50593 | 3.95608 | 18815 ft | 354 kts | 113° |
| 2026-05-06 20:31 | 43.49715 | 3.98747 | 18358 ft | 349 kts | 114° |
| 2026-05-06 20:31 | 43.48837 | 4.01851 | 17810 ft | 347 kts | 113° |
| 2026-05-06 20:31 | 43.47969 | 4.04938 | 17222 ft | 345 kts | 113° |
| 2026-05-06 20:32 | 43.47095 | 4.08019 | 16607 ft | 345 kts | 113° |
| 2026-05-06 20:32 | 43.46229 | 4.11098 | 15952 ft | 346 kts | 113° |
| 2026-05-06 20:32 | 43.45348 | 4.14192 | 15266 ft | 348 kts | 113° |
| 2026-05-06 20:32 | 43.44470 | 4.17300 | 14545 ft | 350 kts | 113° |
| 2026-05-06 20:33 | 43.43568 | 4.20426 | 13770 ft | 354 kts | 114° |
| 2026-05-06 20:33 | 43.42642 | 4.23577 | 12951 ft | 356 kts | 114° |
| 2026-05-06 20:33 | 43.41756 | 4.26690 | 12725 ft | 341 kts | 112° |
| 2026-05-06 20:33 | 43.40937 | 4.29659 | 12586 ft | 324 kts | 112° |
| 2026-05-06 20:34 | 43.40142 | 4.32518 | 12207 ft | 318 kts | 113° |
| 2026-05-06 20:34 | 43.39334 | 4.35332 | 11734 ft | 315 kts | 114° |
| 2026-05-06 20:34 | 43.38544 | 4.38094 | 11324 ft | 312 kts | 113° |
| 2026-05-06 20:34 | 43.37765 | 4.40823 | 11305 ft | 294 kts | 113° |
| 2026-05-06 20:35 | 43.37050 | 4.43339 | 11272 ft | 279 kts | 113° |
| 2026-05-06 20:35 | 43.36353 | 4.45795 | 11227 ft | 266 kts | 113° |
| 2026-05-06 20:35 | 43.35699 | 4.48109 | 11108 ft | 256 kts | 113° |
| 2026-05-06 20:35 | 43.35057 | 4.50371 | 10851 ft | 253 kts | 113° |
| 2026-05-06 20:36 | 43.34421 | 4.52622 | 10560 ft | 253 kts | 113° |
| 2026-05-06 20:36 | 43.33784 | 4.54871 | 10221 ft | 254 kts | 113° |
| 2026-05-06 20:36 | 43.33151 | 4.57086 | 9961 ft | 252 kts | 113° |
| 2026-05-06 20:36 | 43.32506 | 4.59326 | 9616 ft | 253 kts | 113° |
| 2026-05-06 20:37 | 43.31859 | 4.61547 | 9326 ft | 251 kts | 113° |
| 2026-05-06 20:37 | 43.31209 | 4.63777 | 8994 ft | 252 kts | 114° |
| 2026-05-06 20:37 | 43.30564 | 4.65981 | 8760 ft | 248 kts | 114° |
| 2026-05-06 20:37 | 43.29922 | 4.68174 | 8535 ft | 244 kts | 113° |
| 2026-05-06 20:38 | 43.29283 | 4.70331 | 8180 ft | 246 kts | 114° |
| 2026-05-06 20:38 | 43.28641 | 4.72510 | 7927 ft | 244 kts | 113° |
| 2026-05-06 20:38 | 43.28001 | 4.74679 | 7599 ft | 246 kts | 113° |
| 2026-05-06 20:38 | 43.27365 | 4.76832 | 7372 ft | 242 kts | 113° |
| 2026-05-06 20:39 | 43.26735 | 4.78962 | 7090 ft | 242 kts | 114° |
| 2026-05-06 20:39 | 43.26110 | 4.81068 | 6930 ft | 235 kts | 113° |
| 2026-05-06 20:39 | 43.25502 | 4.83177 | 6525 ft | 242 kts | 108° |
| 2026-05-06 20:39 | 43.25178 | 4.85401 | 6330 ft | 238 kts | 96° |
| 2026-05-06 20:40 | 43.25079 | 4.87681 | 6091 ft | 236 kts | 92° |
| 2026-05-06 20:40 | 43.25008 | 4.89924 | 5826 ft | 235 kts | 92° |
| 2026-05-06 20:40 | 43.24929 | 4.92158 | 5591 ft | 232 kts | 92° |
| 2026-05-06 20:40 | 43.24850 | 4.94375 | 5314 ft | 232 kts | 92° |
| 2026-05-06 20:41 | 43.24771 | 4.96598 | 5080 ft | 230 kts | 92° |
| 2026-05-06 20:41 | 43.24683 | 4.98756 | 4929 ft | 223 kts | 92° |
| 2026-05-06 20:41 | 43.24598 | 5.00803 | 5037 ft | 217 kts | 92° |
| 2026-05-06 20:41 | 43.24510 | 5.02914 | 5041 ft | 224 kts | 92° |
| 2026-05-06 20:42 | 43.24419 | 5.05077 | 5058 ft | 228 kts | 92° |
| 2026-05-06 20:42 | 43.24331 | 5.07233 | 5054 ft | 223 kts | 92° |
| 2026-05-06 20:42 | 43.24246 | 5.09300 | 5011 ft | 211 kts | 92° |
| 2026-05-06 20:42 | 43.24167 | 5.11280 | 4885 ft | 205 kts | 93° |
| 2026-05-06 20:43 | 43.24087 | 5.13211 | 4694 ft | 202 kts | 93° |
| 2026-05-06 20:43 | 43.24003 | 5.15101 | 4556 ft | 196 kts | 92° |
| 2026-05-06 20:43 | 43.24053 | 5.16968 | 4256 ft | 196 kts | 72° |
| 2026-05-06 20:43 | 43.24674 | 5.18588 | 3952 ft | 193 kts | 40° |
| 2026-05-06 20:44 | 43.25686 | 5.19739 | 3733 ft | 187 kts | 30° |
| 2026-05-06 20:44 | 43.26709 | 5.20853 | 3478 ft | 189 kts | 36° |
| 2026-05-06 20:44 | 43.27662 | 5.22102 | 3218 ft | 189 kts | 40° |
| 2026-05-06 20:44 | 43.28549 | 5.23487 | 2940 ft | 199 kts | 57° |
| 2026-05-06 20:45 | 43.29029 | 5.25294 | 3197 ft | 212 kts | 74° |
| 2026-05-06 20:45 | 43.29248 | 5.27276 | 3174 ft | 207 kts | 83° |
| 2026-05-06 20:45 | 43.29431 | 5.29186 | 3077 ft | 196 kts | 70° |
| 2026-05-06 20:45 | 43.30082 | 5.30781 | 2886 ft | 192 kts | 40° |
| 2026-05-06 20:46 | 43.31206 | 5.31669 | 3377 ft | 190 kts | 10° |
| 2026-05-06 20:46 | 43.32639 | 5.31800 | 3015 ft | 216 kts | 345° |
| 2026-05-06 20:46 | 43.33979 | 5.31291 | 3206 ft | 189 kts | 339° |
| 2026-05-06 20:46 | 43.35195 | 5.30749 | 2988 ft | 183 kts | 339° |
| 2026-05-06 20:47 | 43.36400 | 5.30243 | 2720 ft | 181 kts | 340° |
| 2026-05-06 20:47 | 43.37648 | 5.29652 | 1998 ft | 196 kts | 330° |
| 2026-05-06 20:47 | 43.38706 | 5.28494 | 1559 ft | 192 kts | 312° |
| 2026-05-06 20:47 | 43.39624 | 5.27191 | 1237 ft | 185 kts | 311° |
| 2026-05-06 20:48 | 43.40495 | 5.25983 | 1041 ft | 167 kts | 311° |
| 2026-05-06 20:48 | 43.41278 | 5.24890 | 766 ft | 156 kts | 310° |
| 2026-05-06 20:48 | 43.42029 | 5.23837 | 420 ft | 152 kts | 310° |
| 2026-05-06 20:48 | 43.42736 | 5.22846 | 151 ft | 137 kts | 310° |
| 2026-05-06 20:49 | 43.43363 | 5.21943 | 56 ft | 120 kts | 310° |
| 2026-05-06 20:49 | 43.43861 | 5.21227 | 34 ft | 84 kts | 314° |
| 2026-05-06 20:49 | 43.44167 | 5.20797 | 25 ft | 42 kts | 317° |
| 2026-05-06 20:49 | 43.44286 | 5.20786 | 22 ft | 7 kts | 44° |
| 2026-05-06 20:50 | 43.44313 | 5.20866 | 19 ft | 10 kts | 90° |
| 2026-05-06 20:50 | 43.44279 | 5.20961 | 19 ft | 12 kts | 122° |
| 2026-05-06 20:50 | 43.44220 | 5.21063 | 19 ft | 15 kts | 134° |
| 2026-05-06 20:50 | 43.44153 | 5.21156 | 22 ft | 14 kts | 135° |
| 2026-05-06 20:51 | 43.44082 | 5.21255 | 24 ft | 15 kts | 133° |
| 2026-05-06 20:51 | 43.44009 | 5.21363 | 26 ft | 16 kts | 133° |
| 2026-05-06 20:51 | 43.43932 | 5.21478 | 28 ft | 17 kts | 122° |
| 2026-05-06 20:51 | 43.43958 | 5.21602 | 38 ft | 13 kts | 43° |
| 2026-05-06 20:52 | 43.43975 | 5.21703 | 40 ft | 12 kts | 112° |
| 2026-05-06 20:52 | 43.43917 | 5.21792 | 42 ft | 14 kts | 134° |
| 2026-05-06 20:52 | 43.43850 | 5.21887 | 43 ft | 15 kts | 134° |
| 2026-05-06 20:52 | 43.43786 | 5.21987 | 44 ft | 12 kts | 112° |
| 2026-05-06 20:53 | 43.43824 | 5.22085 | 45 ft | 12 kts | 43° |
| 2026-05-06 20:53 | 43.43836 | 5.22109 | 46 ft | 0 kts | 68° |
| 2026-05-06 20:53 | 43.43844 | 5.22115 | 46 ft | 5 kts | 37° |
| 2026-05-06 20:53 | 43.43865 | 5.22168 | 47 ft | 8 kts | 93° |
| 2026-05-06 20:54 | 43.43819 | 5.22217 | 48 ft | 9 kts | 159° |
| 2026-05-06 20:54 | 43.43756 | 5.22244 | 47 ft | 9 kts | 156° |
| 2026-05-06 20:54 | 43.43732 | 5.22319 | 52 ft | 10 kts | 82° |
| 2026-05-06 20:54 | 43.43752 | 5.22423 | 53 ft | 12 kts | 75° |
| 2026-05-06 20:55 | 43.43790 | 5.22526 | 54 ft | 12 kts | 36° |
| 2026-05-06 20:55 | 43.43853 | 5.22556 | 53 ft | 11 kts | 359° |
| 2026-05-06 20:55 | 43.43885 | 5.22515 | 52 ft | 6 kts | 264° |
| 2026-05-06 20:55 | 43.43882 | 5.22476 | 51 ft | 1 kts | 265° |
| 2026-05-06 20:56 | 43.43882 | 5.22467 | 51 ft | 0 kts | 265° |